Time;durP1;ratioP1;P1;durP2;ratioP2;P2;SDS_P1;SDS_P2;PMS_P1;PMS_P2;Temp;Humidity;BMP_temperature;BMP_pressure;BME280_temperature;BME280_humidity;BME280_pressure;Samples;Min_cycle;Max_cycle;Signal;HPM_P1;HPM_P2
2022/05/11 00:01:59;;;;;;;8.35;1.67;;;;;;;11.04;86.02;100029.63;6289031;22;20034;-75
2022/05/11 00:04:25;;;;;;;18.00;2.45;;;;;;;11.02;86.35;100031.84;6362102;22;20101;-74
2022/05/11 00:06:50;;;;;;;12.98;2.60;;;;;;;10.97;86.25;100008.88;6347235;22;20408;-75
2022/05/11 00:09:17;;;;;;;15.35;2.75;;;;;;;11.00;86.30;100013.78;6318739;22;19998;-75
2022/05/11 00:11:43;;;;;;;10.35;2.80;;;;;;;11.03;86.95;100026.09;6347197;22;20413;-75
2022/05/11 00:14:09;;;;;;;13.40;2.30;;;;;;;11.05;86.24;100012.13;6319614;22;20018;-75
2022/05/11 00:16:36;;;;;;;10.50;2.45;;;;;;;11.10;86.46;100021.13;6321295;22;20090;-74
2022/05/11 00:19:01;;;;;;;15.90;2.10;;;;;;;11.04;86.42;99996.81;6346207;22;20013;-74
2022/05/11 00:21:27;;;;;;;15.82;2.20;;;;;;;10.98;86.41;100005.03;6344040;22;20317;-75
2022/05/11 00:23:53;;;;;;;11.65;1.42;;;;;;;10.94;86.78;100009.44;6347301;22;20007;-73
2022/05/11 00:26:21;;;;;;;25.13;3.03;;;;;;;10.93;86.86;100007.78;6292793;22;19998;-75
2022/05/11 00:28:51;;;;;;;18.73;2.08;;;;;;;10.97;86.58;100011.59;6349558;22;19998;-75
2022/05/11 00:31:17;;;;;;;12.93;2.17;;;;;;;11.02;86.97;100018.16;6321587;22;20464;-77
2022/05/11 00:33:42;;;;;;;13.27;2.58;;;;;;;10.93;86.65;99993.28;6317113;22;19982;-76
2022/05/11 00:36:13;;;;;;;21.20;2.63;;;;;;;10.98;86.41;100005.03;6343646;22;20428;-75
2022/05/11 00:39:09;;;;;;;13.68;2.80;;;;;;;10.87;86.57;99987.03;6343777;22;20003;-73
2022/05/11 00:42:06;;;;;;;22.25;2.35;;;;;;;10.96;86.10;100009.97;6320750;22;20006;-74
2022/05/11 00:44:32;;;;;;;15.02;1.77;;;;;;;10.78;86.02;99989.50;6321246;22;20006;-75
2022/05/11 00:47:47;;;;;;;;;;;;;;;;;;;;;
2022/05/11 00:50:34;;;;;;;17.70;2.25;;;;;;;10.95;85.49;100004.75;6345227;22;20045;-74
2022/05/11 00:53:11;;;;;;;9.20;1.60;;;;;;;10.83;85.43;99994.13;6316163;22;20002;-73
2022/05/11 01:03:25;;;;;;;18.00;2.28;;;;;;;10.57;86.26;99961.41;6042355;23;20008;-74
2022/05/11 01:05:53;;;;;;;19.33;2.47;;;;;;;10.69;85.85;99957.53;6120815;23;20017;-75
2022/05/11 01:08:35;;;;;;;10.68;2.10;;;;;;;10.78;85.93;99972.28;6189179;23;20420;-74
2022/05/11 01:11:09;;;;;;;10.68;1.92;;;;;;;10.63;86.27;99954.81;6289290;22;20007;-75
2022/05/11 01:13:51;;;;;;;;;;;;;;;;;;;;;
2022/05/11 01:16:17;;;;;;;13.60;2.28;;;;;;;10.83;85.79;99972.25;6339731;22;20255;-76
2022/05/11 01:19:10;;;;;;;16.90;3.17;;;;;;;10.80;86.47;99975.56;6316990;22;20013;-73
2022/05/11 01:22:03;;;;;;;9.82;2.05;;;;;;;10.52;87.16;99952.41;6313862;22;20333;-75
2022/05/11 01:24:43;;;;;;;16.63;2.08;;;;;;;10.60;86.87;99966.31;6317431;22;20007;-75
2022/05/11 01:27:41;;;;;;;13.60;2.42;;;;;;;10.71;87.20;99971.75;6317694;22;20014;-75
2022/05/11 01:30:18;;;;;;;8.25;1.98;;;;;;;10.75;87.47;99961.91;6316381;22;20021;-75
2022/05/11 01:32:47;;;;;;;13.05;2.55;;;;;;;10.68;87.37;99953.19;6313001;22;20409;-75
2022/05/11 01:35:24;;;;;;;14.93;1.73;;;;;;;10.63;87.94;99971.22;6315173;22;20006;-74
2022/05/11 01:38:33;;;;;;;19.98;2.60;;;;;;;10.48;88.66;99963.06;6315167;22;20003;-75
2022/05/11 01:41:00;;;;;;;11.00;2.00;;;;;;;10.33;89.58;99943.94;6302577;22;20021;-75
2022/05/11 01:45:07;;;;;;;7.90;2.30;;;;;;;10.36;89.82;99960.63;6317579;22;20010;-75
2022/05/11 01:47:19;;;;;;;8.20;1.70;;;;;;;10.20;90.37;99967.19;6329070;22;20019;-76
2022/05/11 01:50:07;;;;;;;14.18;2.25;;;;;;;10.11;90.61;99947.78;6313390;22;20010;-75
2022/05/11 01:52:35;;;;;;;16.92;2.55;;;;;;;10.28;91.02;99964.72;6315585;22;20007;-75
2022/05/11 01:55:03;;;;;;;15.35;2.45;;;;;;;10.20;90.72;99950.78;6346633;22;20005;-76
2022/05/11 01:57:31;;;;;;;13.07;2.63;;;;;;;10.46;90.69;99979.72;6318535;22;20007;-73
2022/05/11 01:59:57;;;;;;;13.88;2.20;;;;;;;10.33;89.92;99930.28;6317124;22;20001;-77
2022/05/11 02:02:30;;;;;;;14.77;2.35;;;;;;;10.58;89.44;99954.03;6344685;22;20317;-74
2022/05/11 02:08:11;;;;;;;21.42;2.55;;;;;;;10.67;88.92;99959.75;6308799;22;20027;-74
2022/05/11 02:10:37;;;;;;;18.60;2.42;;;;;;;10.68;89.53;99955.91;6296893;22;19991;-74
2022/05/11 02:13:05;;;;;;;9.25;2.08;;;;;;;10.54;89.36;99920.13;6310745;22;20003;-74
2022/05/11 02:15:30;;;;;;;12.93;2.03;;;;;;;10.65;89.46;99938.94;6311893;22;20037;-75
2022/05/11 02:17:56;;;;;;;22.23;2.92;;;;;;;10.55;89.88;99936.25;6310583;22;20414;-74
2022/05/11 02:20:23;;;;;;;14.57;2.97;;;;;;;10.53;90.29;99937.63;6310142;22;20322;-74
2022/05/11 02:22:52;;;;;;;10.07;1.95;;;;;;;10.47;90.34;99929.44;6312286;22;20051;-76
2022/05/11 02:28:14;;;;;;;19.05;2.75;;;;;;;10.57;90.66;99945.00;6279054;22;19996;-75
2022/05/11 02:30:41;;;;;;;29.95;2.58;;;;;;;10.42;90.79;99920.44;6309110;22;20449;-73
2022/05/11 02:33:07;;;;;;;14.90;2.50;;;;;;;10.41;91.31;99924.25;6311971;22;19999;-75
2022/05/11 02:35:36;;;;;;;15.20;2.40;;;;;;;10.42;91.32;99934.09;6312066;22;20133;-76
2022/05/11 02:38:25;;;;;;;13.43;2.25;;;;;;;10.29;91.60;99922.63;6309866;22;20007;-76
2022/05/11 02:40:58;;;;;;;10.52;2.08;;;;;;;10.38;92.06;99930.28;6301016;22;20093;-76
2022/05/11 02:43:24;;;;;;;11.90;2.55;;;;;;;10.22;91.70;99902.97;6314178;22;20096;-76
2022/05/11 02:45:50;;;;;;;23.45;2.50;;;;;;;10.30;91.73;99909.78;6284251;22;20030;-76
2022/05/11 02:48:37;;;;;;;21.65;2.70;;;;;;;10.46;91.57;99927.00;6313429;22;20030;-76
2022/05/11 02:55:29;;;;;;;19.50;2.45;;;;;;;10.64;90.11;99929.13;6319529;22;20036;-76
2022/05/11 02:57:50;;;;;;;;;;;;;;;;;;;;;
2022/05/11 03:00:37;;;;;;;10.05;2.33;;;;;;;10.70;90.01;99915.41;6314383;22;20030;-75
2022/05/11 03:03:10;;;;;;;17.80;3.17;;;;;;;10.59;90.51;99899.06;6315362;22;19999;-75
2022/05/11 03:05:52;;;;;;;;;;;;;;;;;;;;;
2022/05/11 03:08:48;;;;;;;;;;;;;;;;;;;;;
2022/05/11 03:11:20;;;;;;;14.10;2.55;;;;;;;10.48;90.32;99870.94;6304127;22;20358;-76
2022/05/11 03:14:09;;;;;;;18.17;2.65;;;;;;;10.70;90.47;99910.75;6315597;22;19996;-76
2022/05/11 03:16:57;;;;;;;;;;;;;;;;;;;;;
2022/05/11 03:19:23;;;;;;;25.33;2.63;;;;;;;10.44;90.37;99855.34;6314789;22;20042;-75
2022/05/11 03:21:52;;;;;;;15.10;2.92;;;;;;;10.44;90.45;99869.03;6312713;22;20037;-77
2022/05/11 03:25:08;;;;;;;;;;;;;;;;;;;;;
2022/05/11 03:30:35;;;;;;;11.95;2.13;;;;;;;10.17;92.13;99861.16;6249725;23;20098;-75
2022/05/11 03:39:06;;;;;;;21.75;2.47;;;;;;;9.95;94.25;99884.16;6253534;23;20004;-75
2022/05/11 03:41:34;;;;;;;28.60;3.05;;;;;;;9.77;94.70;99850.84;6222795;23;20008;-74
2022/05/11 03:44:02;;;;;;;15.80;2.40;;;;;;;9.98;94.68;99880.06;6297852;22;20003;-74
2022/05/11 03:46:28;;;;;;;15.10;2.10;;;;;;;9.85;95.07;99854.94;6313025;22;20656;-74
2022/05/11 03:49:14;;;;;;;15.38;2.92;;;;;;;10.00;95.36;99859.53;6286355;22;20003;-78
2022/05/11 03:52:38;;;;;;;16.77;2.70;;;;;;;9.88;94.47;99832.53;6313072;22;20084;-75
2022/05/11 03:55:14;;;;;;;18.25;3.25;;;;;;;10.11;94.62;99847.50;6314093;22;20409;-75
2022/05/11 04:01:22;;;;;;;22.23;3.17;;;;;;;10.11;93.89;99817.44;6313736;22;20011;-74
2022/05/11 04:07:25;;;;;;;22.10;3.28;;;;;;;10.33;93.80;99842.81;6212770;22;20724;-76
2022/05/11 04:10:11;;;;;;;;;;;;;;;;;;;;;
2022/05/11 04:12:39;;;;;;;15.25;3.90;;;;;;;10.26;93.00;99819.31;6317281;22;20033;-76
2022/05/11 04:52:40;;;;;;;13.50;3.22;;;;;;;10.68;92.36;99813.72;6309485;22;20425;-73
2022/05/11 04:55:59;;;;;;;15.15;2.38;;;;;;;10.82;92.33;99825.69;6298001;22;20003;-72
2022/05/11 04:59:13;;;;;;;34.35;4.30;;;;;;;10.79;92.05;99816.13;6192998;23;20038;-72
2022/05/11 05:02:12;;;;;;;13.25;2.83;;;;;;;10.72;91.38;99798.34;6205482;23;20015;-73
2022/05/11 05:05:14;;;;;;;22.77;3.63;;;;;;;10.73;91.41;99783.59;6182974;23;20531;-73
2022/05/11 05:07:40;;;;;;;17.42;2.42;;;;;;;10.83;91.07;99794.47;6205385;23;20020;-73
2022/05/11 05:10:09;;;;;;;17.95;2.80;;;;;;;11.10;90.50;99837.81;6243938;23;20023;-72
2022/05/11 05:12:37;;;;;;;7.45;2.13;;;;;;;11.12;90.45;99821.91;6219034;22;20000;-73
2022/05/11 05:15:03;;;;;;;10.88;2.85;;;;;;;11.22;89.69;99812.81;6216648;23;20032;-73
2022/05/11 05:17:28;;;;;;;14.57;2.42;;;;;;;11.25;89.93;99801.28;6218538;23;20076;-74
2022/05/11 05:20:00;;;;;;;19.67;2.30;;;;;;;11.34;89.66;99798.75;6168894;23;20071;-74
2022/05/11 05:23:36;;;;;;;;;;;;;;;;;;;;;
2022/05/11 06:32:22;;;;;;;22.08;3.45;;;;;;;13.01;78.26;99746.09;6019188;23;20068;-76
2022/05/11 06:35:09;;;;;;;;;;;;;;;;;;;;;
2022/05/11 06:39:10;;;;;;;17.90;3.78;;;;;;;13.26;78.76;99757.78;6171154;23;20044;-76
2022/05/11 06:42:18;;;;;;;21.02;3.53;;;;;;;13.31;77.46;99754.94;6069603;23;20009;-77
2022/05/11 07:02:03;;;;;;;;;;;;;;;;;;;;;
2022/05/11 07:05:00;;;;;;;;;;;;;;;;;;;;;
2022/05/11 07:07:44;;;;;;;19.00;3.38;;;;;;;12.91;76.26;99707.84;6145512;23;20029;-79
2022/05/11 07:10:42;;;;;;;15.50;3.23;;;;;;;12.91;76.13;99718.81;6190724;23;20013;-80
2022/05/11 07:13:11;;;;;;;28.33;3.35;;;;;;;12.95;76.82;99736.28;6223786;23;20004;-79
2022/05/11 07:15:38;;;;;;;21.02;2.85;;;;;;;12.93;76.61;99744.03;6199405;23;20439;-78
2022/05/11 07:18:48;;;;;;;31.38;3.53;;;;;;;12.75;76.97;99743.75;6199664;23;20095;-79
2022/05/11 07:21:16;;;;;;;11.40;2.17;;;;;;;12.57;78.13;99720.69;6197806;23;20005;-78
2022/05/11 07:24:07;;;;;;;17.83;3.03;;;;;;;12.60;78.33;99707.50;6198170;23;20289;-77
2022/05/11 07:27:14;;;;;;;16.17;2.75;;;;;;;12.77;77.84;99759.09;6183773;23;20011;-76
2022/05/11 07:29:43;;;;;;;;;;;;;;;;;;;;;
2022/05/11 07:32:10;;;;;;;17.25;3.33;;;;;;;12.64;79.65;99749.66;6224589;23;20041;-79
2022/05/11 07:34:39;;;;;;;21.38;2.92;;;;;;;12.42;80.54;99733.81;6225123;23;20013;-78
2022/05/11 07:37:07;;;;;;;25.52;3.53;;;;;;;12.42;80.97;99756.53;6198098;23;20005;-77
2022/05/11 07:40:32;;;;;;;19.63;3.13;;;;;;;12.45;80.64;99733.22;6199406;23;19996;-76
2022/05/11 07:43:43;;;;;;;19.48;2.85;;;;;;;12.27;82.07;99710.97;6193485;23;20358;-78
2022/05/11 07:46:36;;;;;;;;;;;;;;;;;;;;;
2022/05/11 07:49:10;;;;;;;18.88;3.42;;;;;;;13.07;78.42;99733.91;6224955;23;20021;-78
2022/05/11 07:52:02;;;;;;;17.10;3.03;;;;;;;13.14;77.38;99724.47;6173730;23;20039;-79
2022/05/11 07:54:36;;;;;;;17.25;3.28;;;;;;;13.20;77.41;99710.38;6198130;23;20000;-78
2022/05/11 07:59:55;;;;;;;29.13;4.03;;;;;;;13.58;74.82;99720.44;6225257;23;20015;-78
2022/05/11 08:02:27;;;;;;;17.33;3.00;;;;;;;13.77;74.38;99710.19;6224393;23;20001;-78
2022/05/11 08:05:03;;;;;;;16.35;3.15;;;;;;;13.96;73.36;99696.34;6224225;23;20087;-77
2022/05/11 08:07:57;;;;;;;15.40;2.60;;;;;;;14.23;72.59;99697.41;6198923;23;20000;-79
2022/05/11 08:10:40;;;;;;;;;;;;;;;;;;;;;
2022/05/11 08:13:07;;;;;;;13.95;2.58;;;;;;;13.98;71.77;99739.22;6226721;23;20008;-78
2022/05/11 08:15:35;;;;;;;20.27;2.90;;;;;;;13.83;72.42;99732.06;6200340;23;20012;-78
2022/05/11 08:18:20;;;;;;;17.05;2.97;;;;;;;13.22;73.49;99690.84;6200140;23;20008;-77
2022/05/11 08:20:49;;;;;;;23.05;3.25;;;;;;;12.96;74.90;99705.00;6177522;23;20068;-78
2022/05/11 08:23:21;;;;;;;17.58;3.20;;;;;;;12.88;75.87;99698.28;6200215;23;20034;-78
2022/05/11 08:25:48;;;;;;;20.35;3.55;;;;;;;12.97;75.60;99723.09;6200846;23;20004;-78
2022/05/11 08:28:49;;;;;;;;;;;;;;;;;;;;;
2022/05/11 08:34:03;;;;;;;24.25;3.55;;;;;;;13.02;76.24;99703.78;6227835;23;20015;-78
2022/05/11 08:44:00;;;;;;;21.63;3.00;;;;;;;12.82;76.44;99706.88;5991721;23;20012;-79
2022/05/11 08:50:38;;;;;;;19.00;2.85;;;;;;;12.83;77.37;99723.03;5989249;23;20094;-79
2022/05/11 08:53:28;;;;;;;21.52;2.75;;;;;;;12.67;77.81;99696.97;5966722;24;20038;-78
2022/05/11 08:59:54;;;;;;;16.42;3.05;;;;;;;12.54;79.53;99677.41;6056627;23;20010;-78
2022/05/11 09:03:14;;;;;;;;;;;;;;;;;;;;;
2022/05/11 09:09:17;;;;;;;19.60;2.83;;;;;;;12.29;82.36;99700.50;6024311;23;19995;-78
2022/05/11 09:15:49;;;;;;;;;;;;;;;;;;;;;
2022/05/11 09:21:44;;;;;;;;;;;;;;;;;;;;;
2022/05/11 11:26:33;;;;;;;17.13;4.82;;;;;;;12.34;100.00;99611.91;6073117;23;20063;-79
2022/05/11 11:28:58;;;;;;;19.98;4.57;;;;;;;12.30;100.00;99622.66;6048406;23;20030;-81
2022/05/11 11:31:27;;;;;;;27.02;5.78;;;;;;;12.29;100.00;99626.50;6048703;23;20101;-80
2022/05/11 11:34:23;;;;;;;;;;;;;;;;;;;;;
2022/05/11 11:37:27;;;;;;;26.88;4.80;;;;;;;12.03;100.00;99585.78;6190118;23;20088;-81
2022/05/11 11:40:16;;;;;;;7.78;3.50;;;;;;;12.30;100.00;99633.63;6191870;23;20012;-80
2022/05/11 11:43:38;;;;;;;14.18;3.47;;;;;;;12.19;100.00;99604.72;6179541;23;20017;-80
2022/05/11 11:45:57;;;;;;;12.10;3.03;;;;;;;12.25;100.00;99625.47;6191436;23;20008;-80
2022/05/11 11:48:46;;;;;;;12.75;2.70;;;;;;;12.05;100.00;99599.97;6191658;23;20024;-78
2022/05/11 11:51:31;;;;;;;6.65;2.70;;;;;;;12.04;100.00;99622.19;6192048;23;20012;-80
2022/05/11 11:53:57;;;;;;;5.85;2.40;;;;;;;12.12;100.00;99605.09;6189972;23;20008;-77
2022/05/11 11:56:25;;;;;;;5.22;2.38;;;;;;;12.34;100.00;99618.22;6189987;23;20092;-80
2022/05/11 11:59:11;;;;;;;14.10;1.98;;;;;;;12.31;100.00;99618.81;6192646;23;20009;-79
2022/05/11 12:01:42;;;;;;;7.88;2.40;;;;;;;12.38;100.00;99613.75;6188230;23;19993;-74
2022/05/11 12:04:24;;;;;;;4.50;1.70;;;;;;;12.59;100.00;99618.91;6190962;23;20005;-74
2022/05/11 13:20:25;;;;;;;1.25;0.73;;;;;;;13.23;100.00;99626.59;6254540;22;20012;-72
2022/05/11 13:22:53;;;;;;;3.15;0.93;;;;;;;13.04;100.00;99597.28;6279132;22;20023;-75
2022/05/11 13:25:54;;;;;;;3.55;0.98;;;;;;;13.32;100.00;99608.31;6252164;22;20017;-75
2022/05/11 13:28:21;;;;;;;1.58;0.80;;;;;;;13.75;100.00;99618.19;6251816;22;20397;-75
2022/05/11 13:30:59;;;;;;;;;;;;;;;;;;;;;
2022/05/11 13:33:45;;;;;;;3.22;1.10;;;;;;;13.94;100.00;99618.06;6280193;22;20042;-75
2022/05/11 13:36:30;;;;;;;1.10;0.60;;;;;;;13.98;100.00;99618.25;6277982;22;20007;-75
2022/05/11 13:39:19;;;;;;;2.47;0.88;;;;;;;13.91;100.00;99629.66;6253105;22;20007;-75
2022/05/11 13:41:55;;;;;;;0.90;0.47;;;;;;;13.90;100.00;99617.03;6235188;22;20433;-74
2022/05/11 13:45:00;;;;;;;2.15;0.93;;;;;;;13.74;100.00;99647.59;6251873;22;20085;-75
2022/05/11 13:50:37;;;;;;;1.45;0.80;;;;;;;13.58;100.00;99632.53;6279115;22;20240;-76
2022/05/11 13:53:21;;;;;;;;;;;;;;;13.66;100.00;99651.06;6254088;22;20006;-75
2022/05/11 13:56:06;;;;;;;0.68;0.68;;;;;;;13.65;100.00;99663.16;6253606;22;19904;-76
2022/05/11 13:58:41;;;;;;;2.30;0.38;;;;;;;13.38;100.00;99640.06;6254005;22;20332;-74
2022/05/11 14:01:13;;;;;;;0.63;0.40;;;;;;;13.35;100.00;99637.94;6252615;22;19987;-76
2022/05/11 14:03:56;;;;;;;1.48;0.63;;;;;;;13.33;100.00;99637.41;6253982;22;19991;-75
2022/05/11 14:07:02;;;;;;;1.52;0.52;;;;;;;14.57;100.00;99618.25;6252686;22;20003;-75
2022/05/11 14:09:44;;;;;;;;;;;;;;;;;;;;;
2022/05/11 14:12:30;;;;;;;0.30;0.30;;;;;;;15.13;100.00;99627.88;6282148;22;20027;-74
2022/05/11 14:15:05;;;;;;;1.15;0.40;;;;;;;15.41;99.37;99624.94;6277433;22;20007;-76
2022/05/11 14:17:51;;;;;;;3.40;0.90;;;;;;;20.29;91.76;99599.50;6248614;23;20369;-76
2022/05/11 14:20:22;;;;;;;0.60;0.30;;;;;;;22.51;78.04;99626.94;6248895;23;20012;-77
2022/05/11 14:22:51;;;;;;;1.15;0.50;;;;;;;22.14;72.32;99645.63;6222825;23;20026;-75
2022/05/11 14:25:26;;;;;;;0.98;0.35;;;;;;;20.22;76.10;99668.69;6224616;23;20004;-78
2022/05/11 14:27:54;;;;;;;1.98;0.40;;;;;;;18.22;80.57;99670.44;6224280;23;20004;-76
2022/05/11 14:30:23;;;;;;;2.65;0.75;;;;;;;16.93;86.01;99650.16;6224011;23;20011;-76
2022/05/11 14:32:49;;;;;;;4.05;0.70;;;;;;;16.61;88.48;99676.28;6246145;23;20008;-76
2022/05/11 14:35:22;;;;;;;3.72;0.88;;;;;;;16.17;89.01;99673.50;6249277;23;20500;-75
2022/05/11 14:37:58;;;;;;;2.78;0.63;;;;;;;15.85;90.74;99661.75;6221233;23;20012;-75
2022/05/11 14:40:33;;;;;;;2.03;0.63;;;;;;;15.50;88.87;99664.34;6249059;23;20429;-75
2022/05/11 14:43:03;;;;;;;3.85;0.70;;;;;;;15.33;89.58;99672.53;6249817;23;20001;-75
2022/05/11 14:48:56;;;;;;;;;;;;;;;15.85;87.57;99694.81;6156485;23;20096;-77
2022/05/11 14:54:22;;;;;;;;;;;;;;;;;;;;;
2022/05/11 15:01:55;;;;;;;2.95;0.68;;;;;;;15.53;88.69;99696.78;6250294;23;20036;-77
2022/05/11 15:02:20;;;;;;;3.07;0.70;;;;;;;15.69;87.47;99699.13;6249448;23;20034;-76
2022/05/11 15:04:47;;;;;;;4.57;1.38;;;;;;;15.63;87.36;99683.88;6221935;23;20225;-76
2022/05/11 15:07:27;;;;;;;7.90;1.63;;;;;;;16.11;86.59;99685.03;6224149;23;20018;-76
2022/05/11 15:10:40;;;;;;;2.90;1.08;;;;;;;17.09;82.20;99702.13;5108560;27;20405;-76
2022/05/11 15:13:30;;;;;;;4.78;0.85;;;;;;;19.18;73.79;99694.59;5073257;28;20386;-77
2022/05/11 15:16:05;;;;;;;4.85;1.20;;;;;;;21.59;72.99;99705.91;5085643;28;20054;-75
2022/05/11 15:18:31;;;;;;;6.32;1.20;;;;;;;23.34;60.51;99705.44;5067148;28;20033;-79
2022/05/11 15:27:42;;;;;;;4.13;0.80;;;;;;;24.20;50.99;99728.44;5043155;28;20036;-78
2022/05/11 15:30:08;;;;;;;3.45;0.88;;;;;;;24.22;45.06;99712.13;5041547;28;20526;-75
2022/05/11 15:32:36;;;;;;;2.25;0.63;;;;;;;24.40;45.65;99761.88;5049883;28;20037;-74
2022/05/11 15:35:21;;;;;;;5.68;0.80;;;;;;;23.16;45.92;99721.06;5043415;28;20029;-74
2022/05/11 15:38:14;;;;;;;5.57;0.77;;;;;;;24.16;46.08;99713.63;5055026;28;20043;-74
2022/05/11 15:40:45;;;;;;;1.75;0.60;;;;;;;25.98;41.28;99729.38;5067637;28;20039;-74
2022/05/11 15:43:14;;;;;;;8.35;1.40;;;;;;;25.50;39.59;99749.72;5089219;28;20469;-74
2022/05/11 15:45:51;;;;;;;2.78;0.93;;;;;;;23.47;40.65;99742.34;5089996;28;20115;-76
2022/05/11 15:48:16;;;;;;;3.13;0.80;;;;;;;20.73;47.81;99749.63;5051689;28;20016;-74
2022/05/11 15:50:48;;;;;;;3.92;0.80;;;;;;;19.34;51.62;99764.03;5069846;28;20462;-75
2022/05/11 15:53:45;;;;;;;1.83;0.68;;;;;;;18.73;54.17;99767.31;5068948;28;20028;-75
2022/05/11 15:56:32;;;;;;;;;;;;;;;;;;;;;
2022/05/11 16:02:46;;;;;;;;;;;;;;;;;;;;;
2022/05/11 16:05:13;;;;;;;4.95;1.00;;;;;;;22.57;46.03;99775.91;5084003;28;20095;-75
2022/05/11 16:07:42;;;;;;;4.50;0.52;;;;;;;25.16;40.29;99779.69;5059800;28;20032;-74
2022/05/11 16:13:34;;;;;;;1.45;0.40;;;;;;;27.09;32.49;99807.03;5083476;28;20505;-74
2022/05/11 16:16:31;;;;;;;3.97;1.23;;;;;;;26.29;33.18;99812.09;5062779;28;20032;-75
2022/05/11 16:21:57;;;;;;;2.45;0.50;;;;;;;24.80;35.06;99802.41;5057866;28;20032;-75
2022/05/11 16:25:11;;;;;;;2.80;0.80;;;;;;;24.29;34.78;99786.06;5070592;28;20088;-75
2022/05/11 16:27:39;;;;;;;1.67;0.60;;;;;;;24.83;34.22;99812.84;5069435;28;20047;-77
2022/05/11 16:30:08;;;;;;;1.35;0.47;;;;;;;24.34;33.59;99808.88;5066365;28;20028;-75
2022/05/11 16:32:37;;;;;;;0.73;0.30;;;;;;;24.12;36.10;99810.50;5052633;28;20032;-74
2022/05/11 16:35:03;;;;;;;5.20;0.63;;;;;;;24.60;34.67;99834.47;5077345;28;20681;-74
2022/05/11 16:38:47;;;;;;;4.13;0.90;;;;;;;24.74;34.26;99835.47;5079181;28;20072;-75
2022/05/11 16:41:33;;;;;;;;;;;;;;;;;;;;;
2022/05/11 16:44:17;;;;;;;3.22;1.27;;;;;;;23.17;35.18;99854.53;5067165;28;20100;-74
2022/05/11 16:46:56;;;;;;;;;;;;;;;;;;;;;
2022/05/11 16:49:34;;;;;;;;;;;;;;;;;;;;;
2022/05/11 16:52:11;;;;;;;4.00;0.98;;;;;;;22.78;37.42;99846.06;5075711;28;20111;-75
2022/05/11 16:54:47;;;;;;;3.08;0.75;;;;;;;23.40;38.08;99864.16;5075734;28;20079;-74
2022/05/11 16:57:12;;;;;;;2.75;0.73;;;;;;;23.10;36.94;99843.22;5066160;28;20056;-75
2022/05/11 17:03:23;;;;;;;2.40;0.65;;;;;;;22.17;37.18;99863.25;5049669;28;20036;-74
2022/05/11 17:05:52;;;;;;;2.97;0.60;;;;;;;21.90;38.48;99876.84;5087405;28;20027;-75
2022/05/11 17:09:07;;;;;;;3.25;0.43;;;;;;;21.68;37.76;99898.50;5064487;28;20131;-75
2022/05/11 17:11:57;;;;;;;;;;;;;;;21.60;37.46;99897.50;5045612;28;20036;-74
2022/05/11 17:17:54;;;;;;;2.47;0.68;;;;;;;21.66;39.36;99894.50;5039370;28;20047;-75
2022/05/11 17:20:19;;;;;;;4.47;0.77;;;;;;;21.40;39.50;99904.84;5038519;28;20025;-74
2022/05/11 17:22:54;;;;;;;4.03;0.57;;;;;;;21.33;40.44;99921.31;5041708;28;20183;-74
2022/05/11 17:25:33;;;;;;;2.72;0.55;;;;;;;21.03;41.03;99929.16;5056074;28;20025;-72
2022/05/11 17:28:55;;;;;;;1.63;0.60;;;;;;;20.57;40.18;99912.53;5054950;28;20128;-74
2022/05/11 17:31:46;;;;;;;3.10;0.70;;;;;;;20.10;40.27;99902.63;5034083;28;20025;-76
2022/05/11 17:34:13;;;;;;;1.95;0.52;;;;;;;19.53;42.95;99899.38;5046701;28;20366;-73
2022/05/11 17:36:49;;;;;;;;;;;;;;;;;;;;;
2022/05/11 17:39:15;;;;;;;1.13;0.40;;;;;;;19.23;45.16;99908.94;5052776;28;20084;-75
2022/05/11 18:17:05;;;;;;;3.25;0.93;;;;;;;16.71;52.62;100000.91;5058689;28;20107;-74
2022/05/11 19:28:07;;;;;;;;;;;;;;;;;;;;;
2022/05/11 19:50:02;;;;;;;9.27;1.08;;;;;;;10.23;79.97;100180.59;4884795;29;20121;-79
2022/05/11 22:18:35;;;;;;;8.75;1.45;;;;;;;8.00;96.45;100399.03;4903285;29;20059;-79
2022/05/11 22:22:04;;;;;;;;;;;;;;;;;;;;;
2022/05/11 22:29:07;;;;;;;;;;;;;;;;;;;;;
2022/05/11 22:38:40;;;;;;;8.82;1.58;;;;;;;7.86;97.48;100391.22;4803690;29;20042;-77
2022/05/11 22:41:13;;;;;;;10.07;1.13;;;;;;;7.90;98.19;100407.91;4823323;29;20065;-79
2022/05/11 22:58:31;;;;;;;8.77;1.38;;;;;;;7.48;97.04;100411.84;4735821;30;20576;-78
